SBFZ/FOR METAR and TAF weather

Enter ICAO airport designator
Station Type Date Time Source
SBFZ METAR 2018/12/19 09:00 UTC NOAA

SBFZ 190900Z 15006KT 9999 SCT023 25/23 Q1013


Station Type Date Time Source
SBFZ Decoded METAR 2018/12/19 09:00 UTC NOAA

Fortaleza / pinto Martins , Brazil (SBFZ) 03-47S 038-32W 25M
Dec 19, 2018 - 04:00 AM EST / 2018.12.19 0900 UTC
Wind: from the SSE (150 degrees) at 7 MPH (6 KT):0
Visibility: greater than 7 mile(s):0
Sky conditions: partly cloudy
Temperature: 77 F (25 C)
Dew Point: 73 F (23 C)
Relative Humidity: 88%
Pressure (altimeter): 29.91 in. Hg (1013 hPa)
ob: SBFZ 190900Z 15006KT 9999 SCT023 25/23 Q1013
cycle: 9

Station Type Date Time Source
SBFZ TAF 2018/12/19 06:10 UTC NOAA

TAF SBFZ 190200Z 1906/2006 10008KT 9999 SCT018 TN25/1908Z TX31/1917Z PROB30
TEMPO 1908/1910 8000 SHRA BKN016
BECMG 1912/1913 09014KT
BECMG 1921/ 1922 09007KT
RMK PCN


Example: see airport list